sensor_id;sensor_type;location;lat;lon;timestamp;temperature;humidity
24800;DHT22;12897;50.812;4.430;2022-12-16T00:00:40;-1.30;99.90
24800;DHT22;12897;50.812;4.430;2022-12-16T00:03:19;-1.30;99.90
24800;DHT22;12897;50.812;4.430;2022-12-16T00:05:56;-1.20;99.90
24800;DHT22;12897;50.812;4.430;2022-12-16T00:08:39;-1.00;99.90
24800;DHT22;12897;50.812;4.430;2022-12-16T00:11:16;-0.90;99.90
24800;DHT22;12897;50.812;4.430;2022-12-16T00:13:49;-1.00;99.90
24800;DHT22;12897;50.812;4.430;2022-12-16T00:16:31;-0.80;99.90
24800;DHT22;12897;50.812;4.430;2022-12-16T00:18:57;-0.90;99.90
24800;DHT22;12897;50.812;4.430;2022-12-16T00:21:25;-0.90;99.90
24800;DHT22;12897;50.812;4.430;2022-12-16T00:23:57;-0.90;99.90
24800;DHT22;12897;50.812;4.430;2022-12-16T00:26:26;-0.70;99.90
24800;DHT22;12897;50.812;4.430;2022-12-16T00:28:55;-0.70;99.90
24800;DHT22;12897;50.812;4.430;2022-12-16T00:31:23;-0.60;99.90
24800;DHT22;12897;50.812;4.430;2022-12-16T00:33:56;-0.50;99.90
24800;DHT22;12897;50.812;4.430;2022-12-16T00:36:27;-0.50;99.90
24800;DHT22;12897;50.812;4.430;2022-12-16T00:38:54;-0.40;99.90
24800;DHT22;12897;50.812;4.430;2022-12-16T00:41:22;-0.30;99.90
24800;DHT22;12897;50.812;4.430;2022-12-16T00:43:50;-0.30;99.90
24800;DHT22;12897;50.812;4.430;2022-12-16T00:46:18;-0.20;99.90
24800;DHT22;12897;50.812;4.430;2022-12-16T00:48:49;-0.20;99.90
24800;DHT22;12897;50.812;4.430;2022-12-16T00:51:15;-0.10;99.90
24800;DHT22;12897;50.812;4.430;2022-12-16T00:53:45;0.10;99.90
24800;DHT22;12897;50.812;4.430;2022-12-16T00:56:13;0.10;99.90
24800;DHT22;12897;50.812;4.430;2022-12-16T00:58:41;0.20;99.90
24800;DHT22;12897;50.812;4.430;2022-12-16T01:01:10;0.20;99.90
24800;DHT22;12897;50.812;4.430;2022-12-16T01:03:47;0.30;99.90
24800;DHT22;12897;50.812;4.430;2022-12-16T01:06:21;0.30;99.90
24800;DHT22;12897;50.812;4.430;2022-12-16T01:08:58;0.40;99.90
24800;DHT22;12897;50.812;4.430;2022-12-16T01:11:38;0.40;99.90
24800;DHT22;12897;50.812;4.430;2022-12-16T01:14:14;0.40;99.90
24800;DHT22;12897;50.812;4.430;2022-12-16T01:16:52;0.50;99.90
24800;DHT22;12897;50.812;4.430;2022-12-16T01:19:28;0.50;99.90
24800;DHT22;12897;50.812;4.430;2022-12-16T01:22:07;0.50;99.90
24800;DHT22;12897;50.812;4.430;2022-12-16T01:24:44;0.60;99.90
24800;DHT22;12897;50.812;4.430;2022-12-16T01:27:22;0.50;99.90
24800;DHT22;12897;50.812;4.430;2022-12-16T01:29:50;0.60;99.90
24800;DHT22;12897;50.812;4.430;2022-12-16T01:32:18;0.70;99.90
24800;DHT22;12897;50.812;4.430;2022-12-16T01:34:51;0.80;99.90
24800;DHT22;12897;50.812;4.430;2022-12-16T01:37:23;0.80;99.90
24800;DHT22;12897;50.812;4.430;2022-12-16T01:39:50;0.80;99.90
24800;DHT22;12897;50.812;4.430;2022-12-16T01:42:20;0.80;99.90
24800;DHT22;12897;50.812;4.430;2022-12-16T01:44:48;0.80;99.90
24800;DHT22;12897;50.812;4.430;2022-12-16T01:47:31;0.80;99.90
24800;DHT22;12897;50.812;4.430;2022-12-16T01:50:04;0.90;99.90
24800;DHT22;12897;50.812;4.430;2022-12-16T01:52:35;0.70;99.90
24800;DHT22;12897;50.812;4.430;2022-12-16T01:55:07;0.70;99.90
24800;DHT22;12897;50.812;4.430;2022-12-16T01:57:37;0.80;99.90
24800;DHT22;12897;50.812;4.430;2022-12-16T02:00:06;0.80;99.90
24800;DHT22;12897;50.812;4.430;2022-12-16T02:02:39;0.90;99.90
24800;DHT22;12897;50.812;4.430;2022-12-16T02:05:05;0.70;99.90
24800;DHT22;12897;50.812;4.430;2022-12-16T02:07:47;0.70;99.90
24800;DHT22;12897;50.812;4.430;2022-12-16T02:10:13;0.60;99.90
24800;DHT22;12897;50.812;4.430;2022-12-16T02:12:48;0.70;99.90
24800;DHT22;12897;50.812;4.430;2022-12-16T02:21:14;0.60;99.90
24800;DHT22;12897;50.812;4.430;2022-12-16T02:27:02;0.80;99.90
24800;DHT22;12897;50.812;4.430;2022-12-16T02:29:32;0.80;99.90
24800;DHT22;12897;50.812;4.430;2022-12-16T02:37:13;1.00;99.90
24800;DHT22;12897;50.812;4.430;2022-12-16T02:39:41;1.00;99.90
24800;DHT22;12897;50.812;4.430;2022-12-16T02:45:15;1.10;99.90
24800;DHT22;12897;50.812;4.430;2022-12-16T02:50:34;1.10;99.90
24800;DHT22;12897;50.812;4.430;2022-12-16T02:53:03;1.10;99.90
24800;DHT22;12897;50.812;4.430;2022-12-16T02:56:16;1.20;99.90
24800;DHT22;12897;50.812;4.430;2022-12-16T02:58:51;1.20;99.90
24800;DHT22;12897;50.812;4.430;2022-12-16T03:01:29;1.30;99.90
24800;DHT22;12897;50.812;4.430;2022-12-16T03:03:59;1.40;99.90
24800;DHT22;12897;50.812;4.430;2022-12-16T03:06:29;1.40;99.90
24800;DHT22;12897;50.812;4.430;2022-12-16T03:09:01;1.50;99.90
24800;DHT22;12897;50.812;4.430;2022-12-16T03:11:32;1.50;99.90
24800;DHT22;12897;50.812;4.430;2022-12-16T03:14:00;1.60;99.90
24800;DHT22;12897;50.812;4.430;2022-12-16T03:16:31;1.70;99.90
24800;DHT22;12897;50.812;4.430;2022-12-16T03:19:02;1.70;99.90
24800;DHT22;12897;50.812;4.430;2022-12-16T03:21:46;1.70;99.90
24800;DHT22;12897;50.812;4.430;2022-12-16T03:24:13;1.70;99.90
24800;DHT22;12897;50.812;4.430;2022-12-16T03:26:45;1.80;99.90
24800;DHT22;12897;50.812;4.430;2022-12-16T03:29:32;1.70;99.90
24800;DHT22;12897;50.812;4.430;2022-12-16T03:32:04;1.70;99.90
24800;DHT22;12897;50.812;4.430;2022-12-16T03:34:40;1.80;99.90
24800;DHT22;12897;50.812;4.430;2022-12-16T03:37:08;1.90;99.90
24800;DHT22;12897;50.812;4.430;2022-12-16T03:39:45;1.80;99.90
24800;DHT22;12897;50.812;4.430;2022-12-16T03:42:14;1.80;99.90
24800;DHT22;12897;50.812;4.430;2022-12-16T03:44:44;1.80;99.90
24800;DHT22;12897;50.812;4.430;2022-12-16T03:47:16;1.80;99.90
24800;DHT22;12897;50.812;4.430;2022-12-16T03:49:47;1.90;99.90
24800;DHT22;12897;50.812;4.430;2022-12-16T03:52:14;1.90;99.90
24800;DHT22;12897;50.812;4.430;2022-12-16T03:54:45;1.90;99.90
24800;DHT22;12897;50.812;4.430;2022-12-16T03:57:15;1.90;99.90
24800;DHT22;12897;50.812;4.430;2022-12-16T03:59:43;2.00;99.90
24800;DHT22;12897;50.812;4.430;2022-12-16T04:02:10;1.90;99.90
24800;DHT22;12897;50.812;4.430;2022-12-16T04:04:40;1.90;99.90
24800;DHT22;12897;50.812;4.430;2022-12-16T04:07:07;2.00;99.90
24800;DHT22;12897;50.812;4.430;2022-12-16T04:09:47;2.00;99.90
24800;DHT22;12897;50.812;4.430;2022-12-16T04:12:15;1.90;99.90
24800;DHT22;12897;50.812;4.430;2022-12-16T04:15:04;1.90;99.90
24800;DHT22;12897;50.812;4.430;2022-12-16T04:17:49;1.90;99.90
24800;DHT22;12897;50.812;4.430;2022-12-16T04:20:38;1.90;99.90
24800;DHT22;12897;50.812;4.430;2022-12-16T04:23:25;2.00;99.90
24800;DHT22;12897;50.812;4.430;2022-12-16T04:26:12;2.10;99.90
24800;DHT22;12897;50.812;4.430;2022-12-16T04:28:39;2.40;99.90
24800;DHT22;12897;50.812;4.430;2022-12-16T04:31:08;2.50;99.90
24800;DHT22;12897;50.812;4.430;2022-12-16T04:33:35;2.40;99.90
24800;DHT22;12897;50.812;4.430;2022-12-16T04:36:21;2.40;99.90
24800;DHT22;12897;50.812;4.430;2022-12-16T04:39:07;2.30;99.90
24800;DHT22;12897;50.812;4.430;2022-12-16T04:41:53;2.30;99.90
24800;DHT22;12897;50.812;4.430;2022-12-16T04:44:39;2.30;99.90
24800;DHT22;12897;50.812;4.430;2022-12-16T04:47:26;2.30;99.90
24800;DHT22;12897;50.812;4.430;2022-12-16T04:50:16;2.40;99.90
24800;DHT22;12897;50.812;4.430;2022-12-16T04:52:58;2.40;99.90
24800;DHT22;12897;50.812;4.430;2022-12-16T04:55:44;2.50;99.90
24800;DHT22;12897;50.812;4.430;2022-12-16T04:58:29;2.50;99.90
24800;DHT22;12897;50.812;4.430;2022-12-16T05:01:16;2.50;99.90
24800;DHT22;12897;50.812;4.430;2022-12-16T05:04:02;2.50;99.90
24800;DHT22;12897;50.812;4.430;2022-12-16T05:06:48;2.50;99.90
24800;DHT22;12897;50.812;4.430;2022-12-16T05:09:18;2.50;99.90
24800;DHT22;12897;50.812;4.430;2022-12-16T05:12:04;2.40;99.90
24800;DHT22;12897;50.812;4.430;2022-12-16T05:14:50;2.40;99.90
24800;DHT22;12897;50.812;4.430;2022-12-16T05:17:35;2.50;99.90
24800;DHT22;12897;50.812;4.430;2022-12-16T05:20:24;2.40;99.90
24800;DHT22;12897;50.812;4.430;2022-12-16T05:23:10;2.60;99.90
24800;DHT22;12897;50.812;4.430;2022-12-16T05:25:55;2.50;99.90
24800;DHT22;12897;50.812;4.430;2022-12-16T05:28:40;2.50;99.90
24800;DHT22;12897;50.812;4.430;2022-12-16T05:31:26;2.40;99.90
24800;DHT22;12897;50.812;4.430;2022-12-16T05:34:11;2.30;99.90
24800;DHT22;12897;50.812;4.430;2022-12-16T05:37:00;2.50;99.90
24800;DHT22;12897;50.812;4.430;2022-12-16T05:39:45;2.50;99.90
24800;DHT22;12897;50.812;4.430;2022-12-16T05:42:31;2.30;99.90
24800;DHT22;12897;50.812;4.430;2022-12-16T05:45:17;2.30;99.90
24800;DHT22;12897;50.812;4.430;2022-12-16T05:48:04;2.30;99.90
24800;DHT22;12897;50.812;4.430;2022-12-16T05:50:50;2.30;99.90
24800;DHT22;12897;50.812;4.430;2022-12-16T05:53:36;2.30;99.90
24800;DHT22;12897;50.812;4.430;2022-12-16T05:56:22;2.50;99.90
24800;DHT22;12897;50.812;4.430;2022-12-16T05:59:07;2.50;99.90
24800;DHT22;12897;50.812;4.430;2022-12-16T06:01:53;2.40;99.90
24800;DHT22;12897;50.812;4.430;2022-12-16T06:04:39;2.40;99.90
24800;DHT22;12897;50.812;4.430;2022-12-16T06:07:24;2.40;99.90
24800;DHT22;12897;50.812;4.430;2022-12-16T06:10:09;2.50;99.90
24800;DHT22;12897;50.812;4.430;2022-12-16T06:12:55;2.40;99.90
24800;DHT22;12897;50.812;4.430;2022-12-16T06:15:41;2.40;99.90
24800;DHT22;12897;50.812;4.430;2022-12-16T06:18:28;2.40;99.90
24800;DHT22;12897;50.812;4.430;2022-12-16T06:20:57;2.30;99.90
24800;DHT22;12897;50.812;4.430;2022-12-16T06:23:44;2.40;99.90
24800;DHT22;12897;50.812;4.430;2022-12-16T06:26:30;2.40;99.90
24800;DHT22;12897;50.812;4.430;2022-12-16T06:29:17;2.60;99.90
24800;DHT22;12897;50.812;4.430;2022-12-16T06:32:03;2.70;99.90
24800;DHT22;12897;50.812;4.430;2022-12-16T06:34:48;2.50;99.90
24800;DHT22;12897;50.812;4.430;2022-12-16T06:37:35;2.50;99.90
24800;DHT22;12897;50.812;4.430;2022-12-16T06:40:23;2.50;99.90
24800;DHT22;12897;50.812;4.430;2022-12-16T06:43:09;2.40;99.90
24800;DHT22;12897;50.812;4.430;2022-12-16T06:45:54;2.50;99.90
24800;DHT22;12897;50.812;4.430;2022-12-16T06:48:40;2.60;99.90
24800;DHT22;12897;50.812;4.430;2022-12-16T06:51:30;2.70;99.90
24800;DHT22;12897;50.812;4.430;2022-12-16T06:54:12;2.70;99.90
24800;DHT22;12897;50.812;4.430;2022-12-16T06:56:58;2.50;99.90
24800;DHT22;12897;50.812;4.430;2022-12-16T06:59:44;2.40;99.90
24800;DHT22;12897;50.812;4.430;2022-12-16T07:02:29;2.40;99.90
24800;DHT22;12897;50.812;4.430;2022-12-16T07:05:15;2.50;99.90
24800;DHT22;12897;50.812;4.430;2022-12-16T07:08:05;2.60;99.90
24800;DHT22;12897;50.812;4.430;2022-12-16T07:10:49;2.60;99.90
24800;DHT22;12897;50.812;4.430;2022-12-16T07:13:34;2.60;99.90
24800;DHT22;12897;50.812;4.430;2022-12-16T07:16:21;2.70;99.90
24800;DHT22;12897;50.812;4.430;2022-12-16T07:19:06;2.70;99.90
24800;DHT22;12897;50.812;4.430;2022-12-16T07:21:52;2.60;99.90
24800;DHT22;12897;50.812;4.430;2022-12-16T07:24:38;2.60;99.90
24800;DHT22;12897;50.812;4.430;2022-12-16T07:27:25;2.60;99.90
24800;DHT22;12897;50.812;4.430;2022-12-16T07:30:00;2.50;99.90
24800;DHT22;12897;50.812;4.430;2022-12-16T07:32:51;2.60;99.90
24800;DHT22;12897;50.812;4.430;2022-12-16T07:35:34;2.60;99.90
24800;DHT22;12897;50.812;4.430;2022-12-16T07:38:20;2.40;99.90
24800;DHT22;12897;50.812;4.430;2022-12-16T07:41:05;2.40;99.90
24800;DHT22;12897;50.812;4.430;2022-12-16T07:43:52;2.30;99.90
24800;DHT22;12897;50.812;4.430;2022-12-16T07:46:37;2.30;99.90
24800;DHT22;12897;50.812;4.430;2022-12-16T07:49:24;2.30;99.90
24800;DHT22;12897;50.812;4.430;2022-12-16T07:52:10;2.40;99.90
24800;DHT22;12897;50.812;4.430;2022-12-16T07:54:56;2.40;99.90
24800;DHT22;12897;50.812;4.430;2022-12-16T07:57:48;2.40;99.90
24800;DHT22;12897;50.812;4.430;2022-12-16T08:00:34;2.30;99.90
24800;DHT22;12897;50.812;4.430;2022-12-16T08:03:21;2.10;99.90
24800;DHT22;12897;50.812;4.430;2022-12-16T08:06:06;2.10;99.90
24800;DHT22;12897;50.812;4.430;2022-12-16T08:08:52;2.20;99.90
24800;DHT22;12897;50.812;4.430;2022-12-16T08:11:37;2.00;99.90
24800;DHT22;12897;50.812;4.430;2022-12-16T08:14:29;2.10;99.90
24800;DHT22;12897;50.812;4.430;2022-12-16T08:17:16;2.30;99.90
24800;DHT22;12897;50.812;4.430;2022-12-16T08:20:04;2.20;99.90
24800;DHT22;12897;50.812;4.430;2022-12-16T08:22:53;2.20;99.90
24800;DHT22;12897;50.812;4.430;2022-12-16T08:25:40;2.30;99.90
24800;DHT22;12897;50.812;4.430;2022-12-16T08:28:26;2.40;99.90
24800;DHT22;12897;50.812;4.430;2022-12-16T08:31:14;2.40;99.90
24800;DHT22;12897;50.812;4.430;2022-12-16T08:34:00;2.50;99.90
24800;DHT22;12897;50.812;4.430;2022-12-16T08:36:52;2.60;99.90
24800;DHT22;12897;50.812;4.430;2022-12-16T08:39:40;2.60;99.90
24800;DHT22;12897;50.812;4.430;2022-12-16T08:42:28;2.60;99.90
24800;DHT22;12897;50.812;4.430;2022-12-16T08:45:17;2.80;99.90
24800;DHT22;12897;50.812;4.430;2022-12-16T08:48:03;2.90;99.90
24800;DHT22;12897;50.812;4.430;2022-12-16T08:50:50;3.00;99.90
24800;DHT22;12897;50.812;4.430;2022-12-16T08:53:37;3.20;99.90
24800;DHT22;12897;50.812;4.430;2022-12-16T08:56:24;2.90;99.90
24800;DHT22;12897;50.812;4.430;2022-12-16T08:59:09;2.90;99.90
24800;DHT22;12897;50.812;4.430;2022-12-16T09:01:51;2.90;99.90
24800;DHT22;12897;50.812;4.430;2022-12-16T09:04:39;2.60;99.90
24800;DHT22;12897;50.812;4.430;2022-12-16T09:07:25;2.70;99.90
24800;DHT22;12897;50.812;4.430;2022-12-16T09:10:12;2.60;99.90
24800;DHT22;12897;50.812;4.430;2022-12-16T09:13:12;2.50;99.90
24800;DHT22;12897;50.812;4.430;2022-12-16T09:15:59;2.60;99.90
24800;DHT22;12897;50.812;4.430;2022-12-16T09:18:47;2.50;99.90
24800;DHT22;12897;50.812;4.430;2022-12-16T09:21:33;2.60;99.90
24800;DHT22;12897;50.812;4.430;2022-12-16T09:24:37;2.70;99.90
24800;DHT22;12897;50.812;4.430;2022-12-16T09:27:25;2.90;99.90
24800;DHT22;12897;50.812;4.430;2022-12-16T09:30:09;2.90;99.90
24800;DHT22;12897;50.812;4.430;2022-12-16T09:33:00;3.00;99.90
24800;DHT22;12897;50.812;4.430;2022-12-16T09:35:44;3.10;99.90
24800;DHT22;12897;50.812;4.430;2022-12-16T09:38:30;2.90;99.90
24800;DHT22;12897;50.812;4.430;2022-12-16T09:41:40;3.00;99.90
24800;DHT22;12897;50.812;4.430;2022-12-16T09:47:03;2.90;99.90
24800;DHT22;12897;50.812;4.430;2022-12-16T09:49:52;2.70;99.90
24800;DHT22;12897;50.812;4.430;2022-12-16T09:52:45;2.70;99.90
24800;DHT22;12897;50.812;4.430;2022-12-16T09:55:42;2.40;99.90
24800;DHT22;12897;50.812;4.430;2022-12-16T09:58:23;2.40;99.90
24800;DHT22;12897;50.812;4.430;2022-12-16T10:01:12;2.60;99.90
24800;DHT22;12897;50.812;4.430;2022-12-16T10:03:59;2.50;99.90
24800;DHT22;12897;50.812;4.430;2022-12-16T10:06:46;2.50;99.90
24800;DHT22;12897;50.812;4.430;2022-12-16T10:12:42;2.80;99.90
24800;DHT22;12897;50.812;4.430;2022-12-16T10:15:30;2.90;99.90
24800;DHT22;12897;50.812;4.430;2022-12-16T10:27:04;3.00;99.90
24800;DHT22;12897;50.812;4.430;2022-12-16T10:29:49;2.80;99.90
24800;DHT22;12897;50.812;4.430;2022-12-16T10:32:39;2.70;99.90
24800;DHT22;12897;50.812;4.430;2022-12-16T10:35:37;2.90;99.90
24800;DHT22;12897;50.812;4.430;2022-12-16T10:41:17;3.10;99.90
24800;DHT22;12897;50.812;4.430;2022-12-16T10:44:05;2.90;99.90
24800;DHT22;12897;50.812;4.430;2022-12-16T10:46:52;2.80;99.90
24800;DHT22;12897;50.812;4.430;2022-12-16T10:49:37;2.80;99.90
24800;DHT22;12897;50.812;4.430;2022-12-16T10:52:23;3.00;99.90
24800;DHT22;12897;50.812;4.430;2022-12-16T10:55:50;3.10;99.90
24800;DHT22;12897;50.812;4.430;2022-12-16T11:01:40;3.50;99.90
24800;DHT22;12897;50.812;4.430;2022-12-16T11:04:31;3.60;99.90
24800;DHT22;12897;50.812;4.430;2022-12-16T11:07:29;3.50;99.90
24800;DHT22;12897;50.812;4.430;2022-12-16T11:10:44;3.60;99.90
24800;DHT22;12897;50.812;4.430;2022-12-16T11:13:35;3.60;99.90
24800;DHT22;12897;50.812;4.430;2022-12-16T11:16:28;3.50;99.90
24800;DHT22;12897;50.812;4.430;2022-12-16T11:19:28;3.40;99.90
24800;DHT22;12897;50.812;4.430;2022-12-16T11:22:19;3.50;99.90
24800;DHT22;12897;50.812;4.430;2022-12-16T11:25:17;3.30;99.90
24800;DHT22;12897;50.812;4.430;2022-12-16T11:28:14;3.10;99.90
24800;DHT22;12897;50.812;4.430;2022-12-16T11:31:02;3.00;99.90
24800;DHT22;12897;50.812;4.430;2022-12-16T11:33:44;2.80;99.90
24800;DHT22;12897;50.812;4.430;2022-12-16T11:36:34;2.90;99.90
24800;DHT22;12897;50.812;4.430;2022-12-16T11:39:27;2.80;99.90
24800;DHT22;12897;50.812;4.430;2022-12-16T11:42:27;2.90;99.90
24800;DHT22;12897;50.812;4.430;2022-12-16T11:45:18;2.90;99.90
24800;DHT22;12897;50.812;4.430;2022-12-16T11:48:35;3.00;99.90
24800;DHT22;12897;50.812;4.430;2022-12-16T11:51:12;2.90;99.90
24800;DHT22;12897;50.812;4.430;2022-12-16T11:54:11;2.90;99.90
24800;DHT22;12897;50.812;4.430;2022-12-16T11:56:56;2.90;99.90
24800;DHT22;12897;50.812;4.430;2022-12-16T11:59:56;2.80;99.90
24800;DHT22;12897;50.812;4.430;2022-12-16T12:06:07;2.90;99.90
24800;DHT22;12897;50.812;4.430;2022-12-16T12:12:15;2.80;99.90
24800;DHT22;12897;50.812;4.430;2022-12-16T12:18:04;2.90;99.90
24800;DHT22;12897;50.812;4.430;2022-12-16T12:20:57;2.90;99.90
24800;DHT22;12897;50.812;4.430;2022-12-16T12:23:48;3.00;99.90
24800;DHT22;12897;50.812;4.430;2022-12-16T12:26:34;3.00;99.90
24800;DHT22;12897;50.812;4.430;2022-12-16T12:29:43;3.10;99.90
24800;DHT22;12897;50.812;4.430;2022-12-16T12:35:54;3.30;99.90
24800;DHT22;12897;50.812;4.430;2022-12-16T12:41:49;3.10;99.90
24800;DHT22;12897;50.812;4.430;2022-12-16T12:44:41;3.20;99.90
24800;DHT22;12897;50.812;4.430;2022-12-16T12:47:25;3.30;99.90
24800;DHT22;12897;50.812;4.430;2022-12-16T12:50:28;3.20;99.90
24800;DHT22;12897;50.812;4.430;2022-12-16T12:53:14;3.20;99.90
24800;DHT22;12897;50.812;4.430;2022-12-16T12:59:23;3.30;99.90
24800;DHT22;12897;50.812;4.430;2022-12-16T13:02:13;3.40;99.90
24800;DHT22;12897;50.812;4.430;2022-12-16T13:04:57;3.50;99.90
24800;DHT22;12897;50.812;4.430;2022-12-16T13:07:44;3.50;99.90
24800;DHT22;12897;50.812;4.430;2022-12-16T13:10:35;3.50;99.90
24800;DHT22;12897;50.812;4.430;2022-12-16T13:13:21;3.50;99.90
24800;DHT22;12897;50.812;4.430;2022-12-16T13:19:39;3.50;99.90
24800;DHT22;12897;50.812;4.430;2022-12-16T13:22:35;3.60;99.90
24800;DHT22;12897;50.812;4.430;2022-12-16T13:31:11;3.60;99.90
24800;DHT22;12897;50.812;4.430;2022-12-16T13:34:02;3.30;99.90
24800;DHT22;12897;50.812;4.430;2022-12-16T13:36:51;3.30;99.90
24800;DHT22;12897;50.812;4.430;2022-12-16T13:39:33;3.40;99.90
24800;DHT22;12897;50.812;4.430;2022-12-16T13:45:34;3.60;99.90
24800;DHT22;12897;50.812;4.430;2022-12-16T13:48:38;3.70;99.90
24800;DHT22;12897;50.812;4.430;2022-12-16T13:54:35;3.80;99.90
24800;DHT22;12897;50.812;4.430;2022-12-16T13:57:23;3.80;99.90
24800;DHT22;12897;50.812;4.430;2022-12-16T14:00:19;3.80;99.90
24800;DHT22;12897;50.812;4.430;2022-12-16T14:03:13;3.90;99.90
24800;DHT22;12897;50.812;4.430;2022-12-16T14:05:58;3.80;99.90
24800;DHT22;12897;50.812;4.430;2022-12-16T14:08:45;3.70;99.90
24800;DHT22;12897;50.812;4.430;2022-12-16T14:11:51;3.80;99.90
24800;DHT22;12897;50.812;4.430;2022-12-16T14:14:42;3.90;99.90
24800;DHT22;12897;50.812;4.430;2022-12-16T14:17:36;3.70;99.90
24800;DHT22;12897;50.812;4.430;2022-12-16T14:20:29;3.80;99.90
24800;DHT22;12897;50.812;4.430;2022-12-16T14:23:29;3.80;99.90
24800;DHT22;12897;50.812;4.430;2022-12-16T14:26:13;3.90;99.90
24800;DHT22;12897;50.812;4.430;2022-12-16T14:29:07;3.90;99.90
24800;DHT22;12897;50.812;4.430;2022-12-16T14:31:54;3.80;99.90
24800;DHT22;12897;50.812;4.430;2022-12-16T14:34:40;3.90;99.90
24800;DHT22;12897;50.812;4.430;2022-12-16T14:37:36;3.90;99.90
24800;DHT22;12897;50.812;4.430;2022-12-16T14:40:24;4.00;99.90
24800;DHT22;12897;50.812;4.430;2022-12-16T14:43:21;3.90;99.90
24800;DHT22;12897;50.812;4.430;2022-12-16T14:46:28;3.90;99.90
24800;DHT22;12897;50.812;4.430;2022-12-16T14:49:24;3.70;99.90
24800;DHT22;12897;50.812;4.430;2022-12-16T14:52:26;3.80;99.90
24800;DHT22;12897;50.812;4.430;2022-12-16T14:55:16;3.80;99.90
24800;DHT22;12897;50.812;4.430;2022-12-16T14:58:23;3.80;99.90
24800;DHT22;12897;50.812;4.430;2022-12-16T15:00:49;3.80;99.90
24800;DHT22;12897;50.812;4.430;2022-12-16T15:03:41;3.80;99.90
24800;DHT22;12897;50.812;4.430;2022-12-16T15:06:30;3.90;99.90
24800;DHT22;12897;50.812;4.430;2022-12-16T15:09:20;3.80;99.90
24800;DHT22;12897;50.812;4.430;2022-12-16T15:12:08;3.70;99.90
24800;DHT22;12897;50.812;4.430;2022-12-16T15:14:55;3.60;99.90
24800;DHT22;12897;50.812;4.430;2022-12-16T15:17:54;3.60;99.90
24800;DHT22;12897;50.812;4.430;2022-12-16T15:20:52;3.60;99.90
24800;DHT22;12897;50.812;4.430;2022-12-16T15:23:38;3.50;99.90
24800;DHT22;12897;50.812;4.430;2022-12-16T15:26:26;3.30;99.90
24800;DHT22;12897;50.812;4.430;2022-12-16T15:29:27;3.20;99.90
24800;DHT22;12897;50.812;4.430;2022-12-16T15:35:22;3.00;99.90
24800;DHT22;12897;50.812;4.430;2022-12-16T15:38:23;2.90;99.90
24800;DHT22;12897;50.812;4.430;2022-12-16T15:41:34;2.80;99.90
24800;DHT22;12897;50.812;4.430;2022-12-16T15:44:20;2.60;99.90
24800;DHT22;12897;50.812;4.430;2022-12-16T15:50:13;2.40;99.90
24800;DHT22;12897;50.812;4.430;2022-12-16T15:53:25;2.20;99.90
24800;DHT22;12897;50.812;4.430;2022-12-16T15:56:42;2.00;99.90
24800;DHT22;12897;50.812;4.430;2022-12-16T15:59:30;2.00;99.90
24800;DHT22;12897;50.812;4.430;2022-12-16T16:02:27;1.90;99.90
24800;DHT22;12897;50.812;4.430;2022-12-16T16:05:25;1.80;99.90
24800;DHT22;12897;50.812;4.430;2022-12-16T16:08:13;1.90;99.90
24800;DHT22;12897;50.812;4.430;2022-12-16T16:10:56;1.90;99.90
24800;DHT22;12897;50.812;4.430;2022-12-16T16:13:43;2.00;99.90
24800;DHT22;12897;50.812;4.430;2022-12-16T16:16:29;2.10;99.90
24800;DHT22;12897;50.812;4.430;2022-12-16T16:19:23;1.90;99.90
24800;DHT22;12897;50.812;4.430;2022-12-16T16:22:11;1.90;99.90
24800;DHT22;12897;50.812;4.430;2022-12-16T16:24:57;1.70;99.90
24800;DHT22;12897;50.812;4.430;2022-12-16T16:27:43;1.70;99.90
24800;DHT22;12897;50.812;4.430;2022-12-16T16:30:32;1.80;99.90
24800;DHT22;12897;50.812;4.430;2022-12-16T16:33:16;1.70;99.90
24800;DHT22;12897;50.812;4.430;2022-12-16T16:36:11;1.70;99.90
24800;DHT22;12897;50.812;4.430;2022-12-16T16:38:56;1.90;99.90
24800;DHT22;12897;50.812;4.430;2022-12-16T16:42:01;1.70;99.90
24800;DHT22;12897;50.812;4.430;2022-12-16T16:44:47;1.40;99.90
24800;DHT22;12897;50.812;4.430;2022-12-16T16:47:32;1.30;99.90
24800;DHT22;12897;50.812;4.430;2022-12-16T16:50:17;1.30;99.90
24800;DHT22;12897;50.812;4.430;2022-12-16T16:53:03;1.20;99.90
24800;DHT22;12897;50.812;4.430;2022-12-16T16:55:51;1.40;99.90
24800;DHT22;12897;50.812;4.430;2022-12-16T16:58:37;1.70;99.90
24800;DHT22;12897;50.812;4.430;2022-12-16T17:01:25;1.70;99.90
24800;DHT22;12897;50.812;4.430;2022-12-16T17:04:10;1.60;99.90
24800;DHT22;12897;50.812;4.430;2022-12-16T17:06:56;1.40;99.90
24800;DHT22;12897;50.812;4.430;2022-12-16T17:09:41;1.20;99.90
24800;DHT22;12897;50.812;4.430;2022-12-16T17:12:29;1.10;99.90
24800;DHT22;12897;50.812;4.430;2022-12-16T17:18:06;1.20;99.90
24800;DHT22;12897;50.812;4.430;2022-12-16T17:20:53;1.30;99.90
24800;DHT22;12897;50.812;4.430;2022-12-16T17:23:40;1.30;99.90
24800;DHT22;12897;50.812;4.430;2022-12-16T17:26:26;1.10;99.90
24800;DHT22;12897;50.812;4.430;2022-12-16T17:29:20;0.90;99.90
24800;DHT22;12897;50.812;4.430;2022-12-16T17:32:07;1.00;99.90
24800;DHT22;12897;50.812;4.430;2022-12-16T17:34:54;1.30;99.90
24800;DHT22;12897;50.812;4.430;2022-12-16T17:37:39;1.40;99.90
24800;DHT22;12897;50.812;4.430;2022-12-16T17:40:24;1.20;99.90
24800;DHT22;12897;50.812;4.430;2022-12-16T17:43:10;1.10;99.90
24800;DHT22;12897;50.812;4.430;2022-12-16T17:46:06;1.00;99.90
24800;DHT22;12897;50.812;4.430;2022-12-16T17:48:56;1.00;99.90
24800;DHT22;12897;50.812;4.430;2022-12-16T17:51:42;0.90;99.90
24800;DHT22;12897;50.812;4.430;2022-12-16T17:54:28;0.90;99.90
24800;DHT22;12897;50.812;4.430;2022-12-16T17:57:13;1.00;99.90
24800;DHT22;12897;50.812;4.430;2022-12-16T17:59:59;1.00;99.90
24800;DHT22;12897;50.812;4.430;2022-12-16T18:02:44;0.90;99.90
24800;DHT22;12897;50.812;4.430;2022-12-16T18:05:30;0.80;99.90
24800;DHT22;12897;50.812;4.430;2022-12-16T18:08:15;0.70;99.90
24800;DHT22;12897;50.812;4.430;2022-12-16T18:11:00;0.80;99.90
24800;DHT22;12897;50.812;4.430;2022-12-16T18:13:46;0.70;99.90
24800;DHT22;12897;50.812;4.430;2022-12-16T18:16:33;0.70;99.90
24800;DHT22;12897;50.812;4.430;2022-12-16T18:19:20;0.60;99.90
24800;DHT22;12897;50.812;4.430;2022-12-16T18:22:05;0.70;99.90
24800;DHT22;12897;50.812;4.430;2022-12-16T18:24:50;0.60;99.90
24800;DHT22;12897;50.812;4.430;2022-12-16T18:27:37;0.60;99.90
24800;DHT22;12897;50.812;4.430;2022-12-16T18:30:22;0.50;99.90
24800;DHT22;12897;50.812;4.430;2022-12-16T18:33:10;0.40;99.90
24800;DHT22;12897;50.812;4.430;2022-12-16T18:35:56;0.30;99.90
24800;DHT22;12897;50.812;4.430;2022-12-16T18:38:42;0.40;99.90
24800;DHT22;12897;50.812;4.430;2022-12-16T18:41:27;0.40;99.90
24800;DHT22;12897;50.812;4.430;2022-12-16T18:44:13;0.40;99.90
24800;DHT22;12897;50.812;4.430;2022-12-16T18:47:00;0.30;99.90
24800;DHT22;12897;50.812;4.430;2022-12-16T18:49:46;0.30;99.90
24800;DHT22;12897;50.812;4.430;2022-12-16T18:52:31;0.30;99.90
24800;DHT22;12897;50.812;4.430;2022-12-16T18:55:17;0.40;99.90
24800;DHT22;12897;50.812;4.430;2022-12-16T18:58:02;0.30;99.90
24800;DHT22;12897;50.812;4.430;2022-12-16T19:00:47;0.20;99.90